Time;durP1;ratioP1;P1;durP2;ratioP2;P2;SDS_P1;SDS_P2;PMS_P1;PMS_P2;Temp;Humidity;BMP_temperature;BMP_pressure;BME280_temperature;BME280_humidity;BME280_pressure;Samples;Min_cycle;Max_cycle;Signal;HPM_P1;HPM_P2
2024/04/01 00:02:21;;;;;;;44.15;23.20;;;;;;;6.30;100.00;99231.63;4954398;28;20130;-76
2024/04/01 00:04:46;;;;;;;50.72;23.63;;;;;;;6.32;100.00;99235.75;4984200;28;20046;-76
2024/04/01 00:07:12;;;;;;;41.90;22.63;;;;;;;6.30;100.00;99227.13;4983858;28;20039;-76
2024/04/01 00:09:37;;;;;;;47.03;22.37;;;;;;;6.29;100.00;99219.34;4982966;28;20038;-75
2024/04/01 00:12:03;;;;;;;52.40;23.02;;;;;;;6.30;100.00;99232.44;4968922;28;20486;-76
2024/04/01 00:14:28;;;;;;;41.92;22.90;;;;;;;6.30;100.00;99240.38;4983527;28;20078;-74
2024/04/01 00:16:53;;;;;;;44.10;23.85;;;;;;;6.25;100.00;99234.78;4963073;28;20073;-75
2024/04/01 00:19:19;;;;;;;44.93;22.97;;;;;;;6.22;100.00;99235.09;4968608;28;20027;-75
2024/04/01 00:21:44;;;;;;;49.00;24.27;;;;;;;6.18;100.00;99223.22;4983874;28;20293;-75
2024/04/01 00:24:10;;;;;;;46.77;22.27;;;;;;;6.14;100.00;99211.31;4983404;28;20956;-75
2024/04/01 00:26:35;;;;;;;41.93;23.57;;;;;;;6.12;100.00;99218.59;4959817;28;20027;-75
2024/04/01 00:29:00;;;;;;;51.80;26.03;;;;;;;6.09;100.00;99208.34;4978820;28;20274;-74
2024/04/01 00:31:32;;;;;;;48.53;24.23;;;;;;;6.10;100.00;99199.38;5063446;28;20379;-75
2024/04/01 00:33:58;;;;;;;42.83;22.30;;;;;;;6.03;100.00;99193.13;5063185;28;20029;-76
2024/04/01 00:36:25;;;;;;;47.50;22.57;;;;;;;5.99;100.00;99181.19;5053934;28;20288;-76
2024/04/01 00:38:50;;;;;;;46.60;22.65;;;;;;;5.95;100.00;99169.28;5058744;28;20298;-77
2024/04/01 00:41:16;;;;;;;47.15;24.92;;;;;;;5.92;100.00;99163.34;5050854;28;20492;-76
2024/04/01 00:43:42;;;;;;;;;;;;;;;5.91;100.00;99166.97;5062185;28;20373;-76
2024/04/01 00:46:07;;;;;;;52.85;25.92;;;;;;;5.92;100.00;99171.28;5062190;28;19919;-76
2024/04/01 00:48:33;;;;;;;55.72;26.70;;;;;;;6.01;100.00;99184.50;5053245;28;20573;-76
2024/04/01 00:50:59;;;;;;;57.30;26.42;;;;;;;6.06;100.00;99195.41;5048314;28;20029;-76
2024/04/01 00:53:24;;;;;;;64.85;29.75;;;;;;;6.03;100.00;99204.53;5043006;28;20084;-76
2024/04/01 00:55:50;;;;;;;55.55;27.63;;;;;;;6.04;100.00;99210.66;5053485;28;20151;-77
2024/04/01 00:58:17;;;;;;;55.00;26.67;;;;;;;5.98;100.00;99200.75;5061452;28;20029;-78
2024/04/01 01:00:46;;;;;;;58.65;28.40;;;;;;;5.91;100.00;99197.94;5044869;28;20479;-76
2024/04/01 01:03:11;;;;;;;66.80;29.02;;;;;;;5.85;100.00;99194.16;5044711;28;20660;-77
2024/04/01 01:05:37;;;;;;;62.05;26.58;;;;;;;5.89;100.00;99207.88;5055210;28;20029;-77
2024/04/01 01:08:04;;;;;;;53.72;26.33;;;;;;;5.88;100.00;99209.69;5047058;28;20029;-76
2024/04/01 01:10:31;;;;;;;67.07;28.45;;;;;;;5.86;100.00;99216.16;5052759;28;20033;-77
2024/04/01 01:12:57;;;;;;;59.35;27.73;;;;;;;5.84;100.00;99204.91;5035356;28;20037;-77
2024/04/01 01:15:24;;;;;;;50.13;24.60;;;;;;;5.81;100.00;99190.19;5038492;28;20033;-76
2024/04/01 01:17:50;;;;;;;54.53;27.55;;;;;;;5.89;100.00;99200.72;5030104;28;20020;-76
2024/04/01 01:20:15;;;;;;;52.63;27.08;;;;;;;5.81;100.00;99190.19;5061992;28;20122;-75
2024/04/01 01:22:42;;;;;;;59.50;27.50;;;;;;;5.94;100.00;99210.84;5062263;28;20036;-77
2024/04/01 01:25:08;;;;;;;;;;;;;;;6.00;100.00;99209.38;5055148;28;20032;-77
2024/04/01 01:27:39;;;;;;;63.25;28.58;;;;;;;5.99;100.00;99205.03;5058623;28;19912;-76
2024/04/01 01:30:14;;;;;;;62.10;29.08;;;;;;;5.98;100.00;99206.06;5057429;28;20491;-78
2024/04/01 01:32:59;;;;;;;59.97;28.67;;;;;;;5.93;100.00;99214.47;5052613;28;20763;-78
2024/04/01 01:35:26;;;;;;;58.00;27.27;;;;;;;5.90;100.00;99213.00;5055064;28;20527;-76
2024/04/01 01:37:53;;;;;;;65.35;30.02;;;;;;;5.96;100.00;99222.09;5052772;28;20033;-78
2024/04/01 01:40:19;;;;;;;67.30;30.70;;;;;;;5.91;100.00;99235.00;5061491;28;20021;-76
2024/04/01 01:42:45;;;;;;;;;;;;;;;5.95;100.00;99235.50;5048650;28;20037;-77
2024/04/01 01:45:10;;;;;;;69.95;30.48;;;;;;;5.94;100.00;99221.44;5042464;28;19912;-77
2024/04/01 01:47:37;;;;;;;82.18;33.17;;;;;;;5.89;100.00;99232.53;5042810;28;20484;-78
2024/04/01 01:50:05;;;;;;;106.93;38.38;;;;;;;5.86;100.00;99216.97;5048203;28;20037;-76
2024/04/01 01:52:31;;;;;;;86.18;37.15;;;;;;;5.95;100.00;99223.13;5039648;28;20043;-78
2024/04/01 01:54:57;;;;;;;83.65;37.70;;;;;;;5.99;100.00;99242.94;5048450;28;20462;-75
2024/04/01 01:57:23;;;;;;;128.90;43.60;;;;;;;5.98;100.00;99241.31;5041719;28;20044;-78
2024/04/01 01:59:48;;;;;;;130.88;44.92;;;;;;;5.97;100.00;99244.97;5033395;28;20508;-77
2024/04/01 02:02:17;;;;;;;123.88;43.33;;;;;;;5.93;100.00;99244.44;5030831;28;20625;-78
2024/04/01 02:04:43;;;;;;;307.13;60.10;;;;;;;5.85;100.00;99244.47;5038288;28;20041;-82
2024/04/01 02:07:09;;;;;;;311.33;56.97;;;;;;;5.85;100.00;99233.88;5034601;28;20033;-76
2024/04/01 02:09:35;;;;;;;144.65;47.13;;;;;;;5.90;100.00;99242.13;5038771;28;20036;-76
2024/04/01 02:12:01;;;;;;;346.10;60.58;;;;;;;5.86;100.00;99246.13;5042735;28;20029;-76
2024/04/01 02:14:27;;;;;;;143.50;48.80;;;;;;;6.07;100.00;99235.00;5048575;28;20033;-76
2024/04/01 02:16:52;;;;;;;518.65;72.03;;;;;;;5.95;100.00;99232.88;5047854;28;20455;-76
2024/04/01 02:19:18;;;;;;;467.90;73.63;;;;;;;5.78;100.00;99237.34;5046956;28;20036;-76
2024/04/01 02:21:46;;;;;;;267.05;57.22;;;;;;;5.83;100.00;99241.16;5042315;28;20037;-75
2024/04/01 02:24:17;;;;;;;227.43;56.25;;;;;;;6.04;100.00;99237.16;5034991;28;20034;-76
2024/04/01 02:26:49;;;;;;;430.90;68.82;;;;;;;6.03;100.00;99236.31;5015778;28;20052;-79
2024/04/01 02:29:15;;;;;;;310.10;61.65;;;;;;;6.00;100.00;99244.63;5023197;28;20060;-76
2024/04/01 02:31:40;;;;;;;;;;;;;;;6.04;100.00;99258.34;5017613;28;20474;-78
2024/04/01 02:34:07;;;;;;;331.40;62.67;;;;;;;6.10;100.00;99239.13;5022206;28;20011;-78
2024/04/01 02:36:34;;;;;;;214.38;60.92;;;;;;;6.08;100.00;99227.88;5017942;28;20448;-77
2024/04/01 02:38:59;;;;;;;162.70;54.90;;;;;;;6.25;100.00;99244.53;5017696;28;20450;-78
2024/04/01 02:41:25;;;;;;;155.93;54.97;;;;;;;6.27;100.00;99231.94;5017830;28;20042;-77
2024/04/01 02:43:50;;;;;;;148.48;54.47;;;;;;;6.32;100.00;99214.53;5016494;28;20475;-77
2024/04/01 02:46:15;;;;;;;547.87;79.80;;;;;;;6.13;100.00;99214.94;5012665;28;20029;-77
2024/04/01 02:48:41;;;;;;;248.68;62.78;;;;;;;6.12;100.00;99208.00;5015685;28;20060;-78
2024/04/01 02:51:06;;;;;;;247.43;61.17;;;;;;;6.09;100.00;99211.00;5013554;28;20064;-77
2024/04/01 02:53:32;;;;;;;173.10;54.07;;;;;;;6.20;100.00;99209.78;5013461;28;20675;-77
2024/04/01 02:55:57;;;;;;;263.95;62.08;;;;;;;6.13;100.00;99191.06;5012849;28;20303;-78
2024/04/01 02:58:22;;;;;;;144.17;53.60;;;;;;;6.26;100.00;99209.91;5046648;28;20493;-77
2024/04/01 03:00:48;;;;;;;439.07;68.00;;;;;;;5.95;100.00;99203.72;5019080;28;20139;-76
2024/04/01 03:03:13;;;;;;;608.53;83.13;;;;;;;5.95;100.00;99211.66;5015979;28;20037;-76
2024/04/01 03:05:39;;;;;;;230.17;62.77;;;;;;;6.12;100.00;99218.59;5016431;28;20439;-76
2024/04/01 03:08:06;;;;;;;608.28;83.00;;;;;;;5.98;100.00;99206.88;5010655;28;20030;-77
2024/04/01 03:10:33;;;;;;;300.08;64.40;;;;;;;6.03;100.00;99204.53;5018282;28;20048;-77
2024/04/01 03:12:58;;;;;;;529.13;78.72;;;;;;;6.02;100.00;99210.84;5030452;28;20033;-76
2024/04/01 03:15:24;;;;;;;562.13;88.80;;;;;;;5.83;100.00;99205.88;5030176;28;20144;-77
2024/04/01 03:17:50;;;;;;;379.37;71.17;;;;;;;6.07;100.00;99220.94;5033802;28;20028;-76
2024/04/01 03:20:18;;;;;;;494.45;85.45;;;;;;;6.07;100.00;99223.59;5034013;28;20132;-78
2024/04/01 03:22:44;;;;;;;322.02;58.60;;;;;;;6.10;100.00;99226.69;5031650;28;20016;-76
2024/04/01 03:25:09;;;;;;;394.52;69.72;;;;;;;6.06;100.00;99230.72;5048883;28;20647;-76
2024/04/01 03:27:34;;;;;;;181.43;52.53;;;;;;;6.20;100.00;99230.97;5035202;28;20052;-76
2024/04/01 03:30:00;;;;;;;232.70;55.80;;;;;;;5.86;100.00;99219.63;5025006;28;20894;-77
2024/04/01 03:32:25;;;;;;;370.87;63.63;;;;;;;5.98;100.00;99216.66;5041232;28;20337;-76
2024/04/01 03:34:51;;;;;;;275.92;58.90;;;;;;;6.09;100.00;99224.25;5031388;28;20036;-77
2024/04/01 03:37:16;;;;;;;570.70;82.60;;;;;;;5.84;100.00;99205.72;5037829;28;20048;-78
2024/04/01 03:39:46;;;;;;;596.13;85.20;;;;;;;5.93;100.00;99210.00;5043291;22;20049;-77
2024/04/01 03:42:12;;;;;;;539.55;81.68;;;;;;;5.89;100.00;99206.03;5024019;28;20045;-77
2024/04/01 03:44:38;;;;;;;579.83;81.22;;;;;;;5.80;100.00;99191.16;5037854;28;20024;-77
2024/04/01 03:47:03;;;;;;;252.90;55.67;;;;;;;5.97;100.00;99193.78;5040346;28;20039;-76
2024/04/01 03:49:29;;;;;;;164.47;48.77;;;;;;;6.12;100.00;99197.38;5019717;28;20032;-77
2024/04/01 03:51:54;;;;;;;372.35;66.25;;;;;;;6.11;100.00;99185.13;5016596;28;20288;-77
2024/04/01 03:54:20;;;;;;;390.83;65.53;;;;;;;5.95;100.00;99185.19;5025473;28;20039;-77
2024/04/01 03:56:45;;;;;;;279.70;57.50;;;;;;;6.06;100.00;99184.81;5045050;28;20762;-77
2024/04/01 03:59:10;;;;;;;449.27;70.37;;;;;;;6.01;100.00;99171.25;5045252;28;20024;-76
2024/04/01 04:01:36;;;;;;;382.92;67.53;;;;;;;6.01;100.00;99173.91;5045852;28;20502;-77
2024/04/01 04:04:02;;;;;;;362.70;66.40;;;;;;;6.09;100.00;99163.28;5044879;28;20029;-77
2024/04/01 04:06:27;;;;;;;192.73;50.40;;;;;;;6.03;100.00;99153.38;5044914;28;20037;-77
2024/04/01 04:08:53;;;;;;;381.07;62.87;;;;;;;5.94;100.00;99155.22;5019219;28;20029;-77
2024/04/01 04:11:19;;;;;;;232.68;57.58;;;;;;;5.97;100.00;99151.41;5035242;28;20280;-77
2024/04/01 04:13:44;;;;;;;221.48;56.40;;;;;;;6.03;100.00;99156.03;5041904;28;20048;-77
2024/04/01 04:16:10;;;;;;;264.38;60.63;;;;;;;6.08;100.00;99145.72;5022513;28;20039;-77
2024/04/01 04:18:35;;;;;;;207.40;54.67;;;;;;;6.05;100.00;99138.97;5025906;28;20037;-77
2024/04/01 04:21:01;;;;;;;360.80;65.47;;;;;;;6.10;100.00;99141.09;5020088;28;20037;-76
2024/04/01 04:23:28;;;;;;;204.70;55.83;;;;;;;5.93;100.00;99127.06;5027099;28;20037;-77
2024/04/01 04:25:53;;;;;;;329.17;60.92;;;;;;;5.86;100.00;99121.63;5020159;28;20037;-77
2024/04/01 04:28:20;;;;;;;151.25;45.88;;;;;;;5.96;100.00;99129.38;5041888;28;20089;-77
2024/04/01 04:30:45;;;;;;;130.13;48.72;;;;;;;6.06;100.00;99129.19;5044156;28;20046;-77
2024/04/01 04:33:11;;;;;;;349.97;63.33;;;;;;;5.98;100.00;99121.28;5039494;28;20449;-77
2024/04/01 04:35:36;;;;;;;255.65;60.72;;;;;;;6.05;100.00;99119.59;5032583;28;20291;-76
2024/04/01 04:38:02;;;;;;;177.60;47.77;;;;;;;6.02;100.00;99126.06;5038496;28;20032;-76
2024/04/01 04:40:27;;;;;;;166.73;51.22;;;;;;;6.09;100.00;99123.56;5040252;28;20284;-77
2024/04/01 04:42:53;;;;;;;426.52;78.97;;;;;;;6.06;100.00;99122.06;5041438;28;20078;-77
2024/04/01 04:45:22;;;;;;;142.43;48.63;;;;;;;6.14;100.00;99123.84;5037731;28;20039;-77
2024/04/01 04:47:51;;;;;;;139.63;48.97;;;;;;;6.16;100.00;99118.34;5044448;28;20484;-76
2024/04/01 04:50:17;;;;;;;287.52;58.30;;;;;;;6.11;100.00;99105.63;5038317;28;20022;-77
2024/04/01 04:52:43;;;;;;;109.55;44.10;;;;;;;6.16;100.00;99111.25;5027310;28;20056;-77
2024/04/01 04:55:08;;;;;;;178.25;50.90;;;;;;;6.17;100.00;99112.91;5019842;28;20468;-77
2024/04/01 04:57:34;;;;;;;183.55;48.90;;;;;;;6.11;100.00;99100.34;5020270;28;20040;-77
2024/04/01 04:59:59;;;;;;;297.75;59.95;;;;;;;6.11;100.00;99108.28;5023173;28;20025;-77
2024/04/01 05:02:25;;;;;;;141.30;49.57;;;;;;;6.15;100.00;99106.94;5035149;28;20056;-77
2024/04/01 05:04:50;;;;;;;132.20;49.00;;;;;;;6.22;100.00;99112.38;5027465;28;20306;-77
2024/04/01 05:07:16;;;;;;;112.40;43.37;;;;;;;6.23;100.00;99114.03;5044025;28;20037;-77
2024/04/01 05:09:42;;;;;;;237.73;53.20;;;;;;;6.20;100.00;99107.25;5043765;28;20119;-76
2024/04/01 05:12:07;;;;;;;109.03;44.67;;;;;;;6.13;100.00;99099.19;5021860;28;20029;-77
2024/04/01 05:14:32;;;;;;;114.70;47.00;;;;;;;6.26;100.00;99103.91;5038653;28;20061;-79
2024/04/01 05:16:58;;;;;;;161.27;46.20;;;;;;;6.31;100.00;99100.72;5022704;28;20750;-77
2024/04/01 05:19:23;;;;;;;105.25;43.30;;;;;;;6.29;100.00;99098.25;5024733;28;20072;-77
2024/04/01 05:21:49;;;;;;;134.55;43.35;;;;;;;6.32;100.00;99097.06;5013041;28;20055;-77
2024/04/01 05:24:15;;;;;;;117.20;45.47;;;;;;;6.29;100.00;99098.25;5037094;28;20113;-77
2024/04/01 05:26:41;;;;;;;;;;;;;;;6.22;100.00;99092.00;5030557;28;20060;-77
2024/04/01 05:29:06;;;;;;;107.80;41.05;;;;;;;6.19;100.00;99084.41;5047182;28;19916;-77
2024/04/01 05:31:31;;;;;;;150.13;45.67;;;;;;;6.12;100.00;99080.81;5026900;28;20018;-77
2024/04/01 05:33:57;;;;;;;195.63;46.50;;;;;;;6.16;100.00;99082.13;5023591;28;20286;-76
2024/04/01 05:36:25;;;;;;;101.07;39.00;;;;;;;6.15;100.00;99075.16;5038874;28;20403;-77
2024/04/01 05:38:52;;;;;;;220.05;46.38;;;;;;;6.12;100.00;99086.09;5045000;28;20087;-77
2024/04/01 05:41:17;;;;;;;106.57;37.17;;;;;;;6.15;100.00;99090.22;5026199;28;20103;-77
2024/04/01 05:43:43;;;;;;;220.75;47.60;;;;;;;6.07;100.00;99083.97;5047107;28;20188;-76
2024/04/01 05:46:08;;;;;;;94.17;35.77;;;;;;;6.16;100.00;99086.56;5027460;28;20036;-77
2024/04/01 05:48:33;;;;;;;98.53;39.20;;;;;;;6.16;100.00;99086.56;5047017;28;20025;-76
2024/04/01 05:50:59;;;;;;;206.40;48.07;;;;;;;6.20;100.00;99094.00;5047025;28;20279;-77
2024/04/01 05:53:24;;;;;;;88.03;35.83;;;;;;;6.27;100.00;99100.25;5046330;28;20103;-77
2024/04/01 05:55:50;;;;;;;217.57;41.80;;;;;;;6.29;100.00;99098.25;5018745;28;20029;-77
2024/04/01 05:58:16;;;;;;;136.48;39.75;;;;;;;6.32;100.00;99097.91;5019832;28;20034;-76
2024/04/01 06:00:41;;;;;;;148.80;44.37;;;;;;;6.32;100.00;99092.63;5027351;28;20028;-77
2024/04/01 06:03:07;;;;;;;88.17;34.20;;;;;;;6.32;100.00;99092.63;5041406;28;20112;-77
2024/04/01 06:05:33;;;;;;;86.85;34.88;;;;;;;6.40;100.00;99098.88;5046374;28;20061;-77
2024/04/01 06:07:59;;;;;;;136.18;35.28;;;;;;;6.39;100.00;99089.25;5046749;28;20033;-77
2024/04/01 06:10:26;;;;;;;97.55;35.97;;;;;;;6.42;100.00;99084.44;5016805;28;20500;-76
2024/04/01 06:12:53;;;;;;;173.50;37.72;;;;;;;6.45;100.00;99080.59;5033617;28;20040;-76
2024/04/01 06:15:19;;;;;;;86.38;34.67;;;;;;;6.47;100.00;99070.63;5040070;28;20051;-76
2024/04/01 06:17:44;;;;;;;72.93;32.10;;;;;;;6.51;100.00;99070.13;5037869;28;20705;-76
2024/04/01 06:20:10;;;;;;;102.77;33.63;;;;;;;6.57;100.00;99073.88;5046011;28;20021;-76
2024/04/01 06:22:36;;;;;;;;;;;;;;;6.55;100.00;99067.91;5034913;28;20074;-77
2024/04/01 06:25:03;;;;;;;79.60;31.05;;;;;;;6.64;100.00;99066.03;5026314;28;19917;-76
2024/04/01 06:27:29;;;;;;;88.50;33.63;;;;;;;6.70;100.00;99075.94;5026239;28;20037;-76
2024/04/01 06:29:54;;;;;;;97.50;35.22;;;;;;;6.57;100.00;99057.97;5024782;28;20087;-77
2024/04/01 06:32:20;;;;;;;98.03;35.63;;;;;;;6.57;100.00;99059.78;5026388;28;20049;-77
2024/04/01 06:34:47;;;;;;;79.80;35.80;;;;;;;6.63;100.00;99051.97;5028780;28;20362;-76
2024/04/01 06:37:12;;;;;;;99.57;35.58;;;;;;;6.57;100.00;99046.53;5038196;28;20030;-76
2024/04/01 06:39:37;;;;;;;66.70;31.70;;;;;;;6.65;100.00;99044.66;5018250;28;20029;-76
2024/04/01 06:42:03;;;;;;;77.20;33.83;;;;;;;6.64;100.00;99055.44;5045867;28;20773;-76
2024/04/01 06:44:28;;;;;;;79.70;34.15;;;;;;;6.64;100.00;99052.78;5045889;28;20033;-76
2024/04/01 06:46:54;;;;;;;58.45;31.30;;;;;;;6.55;100.00;99046.69;5045787;28;20045;-76
2024/04/01 06:49:19;;;;;;;64.17;32.33;;;;;;;6.71;100.00;99059.81;5017042;28;20083;-77
2024/04/01 06:51:44;;;;;;;68.93;34.77;;;;;;;6.74;100.00;99048.88;5029108;28;20029;-76
2024/04/01 06:54:10;;;;;;;65.33;31.63;;;;;;;6.75;100.00;99058.47;5045462;28;20325;-76
2024/04/01 06:56:35;;;;;;;60.27;31.87;;;;;;;6.81;100.00;99053.44;5038707;28;20047;-77
2024/04/01 06:59:01;;;;;;;52.80;28.47;;;;;;;6.79;100.00;99056.31;5037509;28;20279;-76
2024/04/01 07:01:26;;;;;;;52.37;27.93;;;;;;;6.87;100.00;99052.75;5028767;28;20131;-77
2024/04/01 07:03:51;;;;;;;53.47;30.10;;;;;;;6.89;100.00;99058.69;5028932;28;20025;-76
2024/04/01 07:06:18;;;;;;;49.47;29.00;;;;;;;6.86;100.00;99054.59;5047127;28;20040;-76
2024/04/01 07:08:43;;;;;;;;;;;;;;;7.01;100.00;99054.59;5029029;28;20178;-76
2024/04/01 07:11:08;;;;;;;46.60;26.42;;;;;;;7.06;100.00;99057.53;5020491;28;20394;-76
2024/04/01 07:13:34;;;;;;;47.63;26.37;;;;;;;7.06;100.00;99052.22;5038673;28;20041;-76
2024/04/01 07:15:59;;;;;;;42.87;24.53;;;;;;;7.12;100.00;99046.19;5028482;28;20143;-76
2024/04/01 07:18:25;;;;;;;41.90;24.23;;;;;;;7.07;100.00;99043.28;5033973;28;20290;-76
2024/04/01 07:20:51;;;;;;;45.53;27.05;;;;;;;7.44;100.00;99057.47;5026722;28;20835;-75
2024/04/01 07:23:17;;;;;;;38.17;24.20;;;;;;;7.50;100.00;99054.06;5028353;28;20060;-76
2024/04/01 07:25:42;;;;;;;41.00;26.55;;;;;;;7.50;100.00;99054.06;5044907;28;20095;-76
2024/04/01 07:28:07;;;;;;;42.00;25.17;;;;;;;7.57;100.00;99039.06;5031751;28;20041;-76
2024/04/01 07:30:33;;;;;;;43.03;26.07;;;;;;;7.63;100.00;99041.97;5025106;28;20654;-77
2024/04/01 07:32:58;;;;;;;39.90;26.17;;;;;;;7.67;100.00;99037.94;5013423;28;20486;-76
2024/04/01 07:35:24;;;;;;;40.57;23.93;;;;;;;7.70;100.00;99037.56;5010206;28;20304;-77
2024/04/01 07:37:49;;;;;;;45.20;25.70;;;;;;;7.65;100.00;99029.34;5024976;28;20037;-77
2024/04/01 07:40:14;;;;;;;42.90;25.83;;;;;;;7.70;100.00;99037.56;5022419;28;20557;-77
2024/04/01 07:42:42;;;;;;;50.40;26.95;;;;;;;7.74;100.00;99036.19;5025387;28;20508;-77
2024/04/01 07:45:09;;;;;;;44.05;26.23;;;;;;;7.94;100.00;99058.50;5010411;28;20067;-77
2024/04/01 07:47:34;;;;;;;;;;;;;;;7.83;100.00;99048.34;5013947;28;20067;-77
2024/04/01 07:49:59;;;;;;;38.30;22.55;;;;;;;7.86;100.00;99050.63;5027299;28;19959;-77
2024/04/01 07:52:25;;;;;;;34.87;22.80;;;;;;;7.64;100.00;99028.50;5027761;28;20127;-77
2024/04/01 07:54:50;;;;;;;38.30;22.57;;;;;;;7.75;100.00;99027.19;5029791;28;20071;-77
2024/04/01 07:57:16;;;;;;;39.30;22.67;;;;;;;7.47;100.00;99017.28;5017117;28;20280;-77
2024/04/01 07:59:41;;;;;;;40.40;24.23;;;;;;;7.47;100.00;99022.59;5011873;28;20484;-77
2024/04/01 08:02:07;;;;;;;42.35;23.33;;;;;;;7.65;100.00;99037.31;5026178;28;20057;-77
2024/04/01 08:04:32;;;;;;;36.83;22.50;;;;;;;7.81;100.00;99039.75;5012839;28;20060;-77
2024/04/01 08:06:57;;;;;;;40.07;22.23;;;;;;;7.67;100.00;99035.28;5026792;28;20033;-77
2024/04/01 08:09:23;;;;;;;38.70;24.03;;;;;;;7.37;100.00;99032.66;5024570;28;20064;-77
2024/04/01 08:11:49;;;;;;;48.53;27.43;;;;;;;7.22;100.00;99048.59;5011150;28;20360;-77
2024/04/01 08:14:18;;;;;;;38.83;23.85;;;;;;;7.45;100.00;99066.28;5026413;28;20286;-77
2024/04/01 08:16:44;;;;;;;38.20;22.38;;;;;;;7.39;100.00;99052.69;5025990;28;20045;-77
2024/04/01 08:19:10;;;;;;;39.95;22.30;;;;;;;7.59;100.00;99063.59;5032916;28;20049;-77
2024/04/01 08:21:36;;;;;;;38.97;22.50;;;;;;;7.33;100.00;99068.56;5017850;28;20064;-77
2024/04/01 08:24:02;;;;;;;40.78;24.52;;;;;;;7.25;100.00;99079.25;5025203;28;20037;-77
2024/04/01 08:26:27;;;;;;;37.97;24.13;;;;;;;7.19;100.00;99100.19;5007957;28;20028;-77
2024/04/01 08:28:53;;;;;;;51.77;30.53;;;;;;;7.17;100.00;99125.28;5025718;28;20484;-76
2024/04/01 08:31:18;;;;;;;35.72;20.15;;;;;;;7.78;100.00;99157.03;5008446;28;20029;-77
2024/04/01 08:33:44;;;;;;;44.77;24.37;;;;;;;8.14;100.00;99188.97;5009910;28;20049;-77
2024/04/01 08:36:09;;;;;;;41.42;25.08;;;;;;;7.49;100.00;99148.03;5015145;28;20026;-77
2024/04/01 08:38:36;;;;;;;42.67;23.13;;;;;;;7.53;100.00;99144.00;5042583;28;20467;-76
2024/04/01 08:41:27;;;;;;;44.17;26.10;;;;;;;7.73;100.00;99162.06;5023947;28;20022;-77
2024/04/01 08:44:14;;;;;;;36.58;20.98;;;;;;;7.50;100.00;99144.38;5009695;28;20037;-77
2024/04/01 08:46:44;;;;;;;37.42;21.88;;;;;;;7.31;100.00;99142.25;5011367;28;20780;-76
2024/04/01 08:49:11;;;;;;;36.35;21.75;;;;;;;6.97;100.00;99111.69;5028521;28;20431;-77
2024/04/01 08:51:38;;;;;;;38.97;20.77;;;;;;;6.70;100.00;99100.63;5034646;28;20323;-78
2024/04/01 08:54:04;;;;;;;37.25;21.45;;;;;;;6.65;100.00;99103.00;5025727;28;20033;-77
2024/04/01 08:56:31;;;;;;;39.53;21.90;;;;;;;6.93;100.00;99126.28;5031999;28;20929;-78
2024/04/01 08:58:57;;;;;;;35.90;22.35;;;;;;;7.25;100.00;99113.75;5042013;28;20029;-77
2024/04/01 09:01:23;;;;;;;38.45;21.73;;;;;;;7.58;100.00;99124.84;5042977;28;20175;-78
2024/04/01 09:03:49;;;;;;;;;;;;;;;7.72;100.00;99125.88;5040541;28;20514;-77
2024/04/01 09:06:19;;;;;;;32.58;19.70;;;;;;;7.90;100.00;99097.09;5015768;28;19999;-77
2024/04/01 09:08:46;;;;;;;36.70;20.17;;;;;;;8.03;100.00;99085.81;5016433;28;20068;-78
2024/04/01 09:11:14;;;;;;;33.05;19.23;;;;;;;7.92;100.00;99088.94;5014912;28;20087;-76
2024/04/01 09:13:40;;;;;;;34.90;20.48;;;;;;;7.34;100.00;99055.06;5032435;28;20151;-78
2024/04/01 09:16:07;;;;;;;36.80;21.33;;;;;;;7.15;100.00;99056.44;5037666;28;20123;-76
2024/04/01 09:18:36;;;;;;;36.20;19.02;;;;;;;7.48;100.00;99076.50;5034317;28;20049;-77
2024/04/01 09:21:03;;;;;;;38.67;20.77;;;;;;;7.59;100.00;99074.22;5014982;28;20025;-78
2024/04/01 09:23:31;;;;;;;35.70;20.33;;;;;;;7.38;100.00;99051.06;5038924;28;20083;-77
2024/04/01 09:26:00;;;;;;;33.65;20.52;;;;;;;7.68;100.00;99056.38;5027575;28;20029;-77
2024/04/01 09:28:26;;;;;;;34.90;20.35;;;;;;;7.79;100.00;99052.38;5044060;28;20633;-76
2024/04/01 09:30:52;;;;;;;;;;;;;;;7.75;100.00;99059.94;5047894;28;20519;-77
2024/04/01 09:33:17;;;;;;;32.78;18.83;;;;;;;7.83;100.00;99065.13;5048531;28;19955;-77
2024/04/01 09:35:43;;;;;;;37.83;19.63;;;;;;;7.39;100.00;99068.63;5017768;28;20025;-77
2024/04/01 09:38:08;;;;;;;38.75;21.90;;;;;;;7.31;100.00;99081.19;5027288;28;20492;-76
2024/04/01 09:40:34;;;;;;;40.27;20.67;;;;;;;7.38;100.00;99120.09;5050724;22;20048;-76
2024/04/01 09:43:00;;;;;;;48.05;22.98;;;;;;;7.17;100.00;99128.75;5045083;28;21004;-74
2024/04/01 09:45:28;;;;;;;47.38;24.63;;;;;;;7.16;100.00;99135.06;5055804;28;20032;-73
2024/04/01 09:47:54;;;;;;;44.30;25.02;;;;;;;7.27;100.00;99168.31;5048551;28;20081;-75
2024/04/01 09:50:24;;;;;;;;;;;;;;;7.00;100.00;99160.91;5048661;28;20070;-75
2024/04/01 09:52:50;;;;;;;60.47;31.63;;;;;;;7.04;100.00;99186.09;5046089;28;19912;-74
2024/04/01 09:55:20;;;;;;;52.35;27.05;;;;;;;7.25;100.00;99188.06;5047345;28;20040;-75
2024/04/01 09:58:07;;;;;;;58.20;27.48;;;;;;;7.23;100.00;99182.94;5050372;28;20107;-74
2024/04/01 10:00:50;;;;;;;49.33;26.02;;;;;;;7.32;100.00;99175.72;5040846;28;20048;-75
2024/04/01 10:03:32;;;;;;;51.10;27.25;;;;;;;7.35;100.00;99162.09;5025503;28;20131;-76
2024/04/01 10:06:26;;;;;;;49.60;26.77;;;;;;;7.31;100.00;99155.50;5064477;28;20056;-76
2024/04/01 10:09:30;;;;;;;59.88;28.55;;;;;;;7.34;100.00;99165.75;5049058;28;20032;-76
2024/04/01 10:12:08;;;;;;;55.10;27.67;;;;;;;7.63;100.00;99172.94;5048146;28;20152;-74
2024/04/01 10:15:06;;;;;;;57.83;28.98;;;;;;;7.67;100.00;99168.09;5029304;28;20049;-75
2024/04/01 10:17:37;;;;;;;55.25;28.30;;;;;;;7.82;100.00;99171.59;5034556;28;20139;-75
2024/04/01 10:20:35;;;;;;;51.78;26.88;;;;;;;7.72;100.00;99155.91;5049404;28;20060;-75
2024/04/01 10:23:34;;;;;;;50.42;27.33;;;;;;;7.71;100.00;99162.25;5056395;28;20054;-75
2024/04/01 10:26:21;;;;;;;54.05;27.70;;;;;;;7.57;100.00;99139.16;5045107;28;20024;-74
2024/04/01 10:29:21;;;;;;;54.88;28.98;;;;;;;7.97;100.00;99161.78;5049235;28;20062;-76
2024/04/01 10:32:09;;;;;;;60.30;29.08;;;;;;;8.15;100.00;99147.28;5047206;28;20065;-75
2024/04/01 10:34:49;;;;;;;73.82;43.05;;;;;;;8.13;100.00;99142.16;5047958;28;20068;-75
2024/04/01 10:37:36;;;;;;;63.35;32.03;;;;;;;8.34;100.00;99146.69;5052798;28;20740;-73
2024/04/01 10:40:04;;;;;;;49.75;28.58;;;;;;;8.39;100.00;99138.97;5046687;28;20035;-75
2024/04/01 10:42:45;;;;;;;67.20;29.48;;;;;;;8.34;100.00;99125.41;5046893;28;20021;-74
2024/04/01 10:45:19;;;;;;;53.88;28.15;;;;;;;8.39;100.00;99104.41;5061110;28;20090;-74
2024/04/01 10:48:19;;;;;;;51.67;27.95;;;;;;;8.41;100.00;99088.31;5046917;28;20067;-74
2024/04/01 10:51:12;;;;;;;54.25;26.70;;;;;;;8.27;100.00;99071.34;5062817;28;20036;-75
2024/04/01 10:53:49;;;;;;;48.63;25.25;;;;;;;8.40;100.00;99065.34;5030901;28;20044;-75
2024/04/01 10:56:40;;;;;;;44.25;22.42;;;;;;;8.42;100.00;99058.84;5045814;28;20721;-75
2024/04/01 10:59:24;;;;;;;65.63;26.35;;;;;;;8.45;100.00;99057.63;5039114;28;20116;-74
2024/04/01 11:02:02;;;;;;;47.28;25.95;;;;;;;8.54;100.00;99045.84;5029894;28;20110;-75
2024/04/01 11:04:46;;;;;;;42.75;24.33;;;;;;;8.65;100.00;99041.88;5045598;28;20033;-74
2024/04/01 11:07:46;;;;;;;50.78;25.77;;;;;;;8.65;100.00;99028.56;5042249;28;20480;-75
2024/04/01 11:10:30;;;;;;;51.05;26.10;;;;;;;8.66;100.00;99032.84;5057498;28;20061;-75
2024/04/01 11:13:04;;;;;;;48.58;24.33;;;;;;;8.63;100.00;99035.91;5046207;28;20058;-72
2024/04/01 11:15:30;;;;;;;45.50;22.17;;;;;;;8.61;100.00;99037.94;5046984;28;20040;-74
2024/04/01 11:18:15;;;;;;;41.38;23.95;;;;;;;8.78;100.00;99044.66;5045109;28;20086;-74
2024/04/01 11:20:43;;;;;;;51.78;24.83;;;;;;;8.95;100.00;99042.53;5051464;28;20764;-74
2024/04/01 11:23:27;;;;;;;47.88;25.95;;;;;;;9.01;100.00;99054.22;5038826;28;20652;-75